Bizerte, Sidi Ahmed Air Base (DTTB)

NameSidi Ahmed Air Base
CityBizerte
CountryTunisia
ICAODTTB
IATAQIZ
Altitude6 m
CoordinatesGoogle Map
Live Air TrafficLiveATC.net
METARDTTB 130700Z 27012KT 240V300 9999 SCT016TCU 08/03 Q1007
2019-11-13 07:00:00 Wind: West (270°) 6.17 m/s - Visibility: > 10000 m - Temperature: 8 °C - Dew point: 3 °C - Humidity: 71% - Pressure: 1007 hPa

Sorry, no flights used the airport in this database.